Time;durP1;ratioP1;P1;durP2;ratioP2;P2;SDS_P1;SDS_P2;PMS_P1;PMS_P2;Temp;Humidity;BMP_temperature;BMP_pressure;BME280_temperature;BME280_humidity;BME280_pressure;Samples;Min_cycle;Max_cycle;Signal;HPM_P1;HPM_P2
2023/07/18 00:00:58;;;;;;;5.05;4.35;;;;;;;;;;9985046;28;20464;-47
2023/07/18 00:05:49;;;;;;;6.32;4.82;;;;;;;;;;9982394;28;20049;-48
2023/07/18 00:10:42;;;;;;;7.70;5.43;;;;;;;;;;10001292;28;20137;-52
2023/07/18 00:15:34;;;;;;;8.68;4.97;;;;;;;;;;9981857;28;20050;-48
2023/07/18 00:20:26;;;;;;;4.55;3.50;;;;;;;;;;9976451;28;20072;-50
2023/07/18 00:25:19;;;;;;;8.82;4.28;;;;;;;;;;9966817;28;20380;-53
2023/07/18 00:30:12;;;;;;;6.75;4.88;;;;;;;;;;9972495;28;20051;-48
2023/07/18 00:35:05;;;;;;;6.95;4.22;;;;;;;;;;9969470;28;20077;-52
2023/07/18 00:39:57;;;;;;;5.50;3.80;;;;;;;;;;9979849;28;20130;-51
2023/07/18 00:44:50;;;;;;;6.07;3.38;;;;;;;;;;9988098;28;20081;-50
2023/07/18 00:49:42;;;;;;;6.30;4.35;;;;;;;;;;9992138;28;20065;-51
2023/07/18 00:54:34;;;;;;;8.30;4.07;;;;;;;;;;9974798;28;20050;-50
2023/07/18 00:59:27;;;;;;;5.35;3.75;;;;;;;;;;9989643;28;20049;-51
2023/07/18 01:04:19;;;;;;;6.55;4.20;;;;;;;;;;9990388;28;20089;-50
2023/07/18 01:09:11;;;;;;;5.18;3.83;;;;;;;;;;9988836;28;20137;-51
2023/07/18 01:14:03;;;;;;;4.07;3.67;;;;;;;;;;9982108;28;20109;-51
2023/07/18 01:18:55;;;;;;;6.55;4.50;;;;;;;;;;9966078;28;20121;-47
2023/07/18 01:23:47;;;;;;;7.78;4.40;;;;;;;;;;9991253;28;20073;-51
2023/07/18 01:28:39;;;;;;;5.07;3.58;;;;;;;;;;9968196;28;20051;-49
2023/07/18 01:33:32;;;;;;;6.22;3.60;;;;;;;;;;9983094;28;20049;-50
2023/07/18 01:38:31;;;;;;;5.03;3.63;;;;;;;;;;9984187;28;20073;-53
2023/07/18 01:43:23;;;;;;;5.28;3.92;;;;;;;;;;9989922;28;20108;-53
2023/07/18 01:48:16;;;;;;;4.90;3.42;;;;;;;;;;9967430;28;20785;-49
2023/07/18 01:53:10;;;;;;;5.65;3.97;;;;;;;;;;9974689;28;20097;-51
2023/07/18 01:58:02;;;;;;;5.68;4.38;;;;;;;;;;9969594;28;20053;-49
2023/07/18 02:02:54;;;;;;;5.93;3.60;;;;;;;;;;9984675;28;20054;-51
2023/07/18 02:07:47;;;;;;;5.50;3.92;;;;;;;;;;9966707;28;20054;-49
2023/07/18 02:12:40;;;;;;;5.28;3.08;;;;;;;;;;9987642;28;20054;-48
2023/07/18 02:17:33;;;;;;;5.95;4.20;;;;;;;;;;9983349;28;20092;-48
2023/07/18 02:22:25;;;;;;;6.00;3.95;;;;;;;;;;9986225;28;20129;-53
2023/07/18 02:27:19;;;;;;;3.95;3.53;;;;;;;;;;9984790;28;20066;-47
2023/07/18 02:32:14;;;;;;;10.80;5.20;;;;;;;;;;9955853;28;20042;-52
2023/07/18 02:37:05;;;;;;;4.95;3.58;;;;;;;;;;9983892;28;20424;-50
2023/07/18 02:41:57;;;;;;;6.40;4.20;;;;;;;;;;9950301;28;20049;-46
2023/07/18 02:46:50;;;;;;;4.43;3.58;;;;;;;;;;9988112;28;20034;-50
2023/07/18 02:51:42;;;;;;;5.35;3.40;;;;;;;;;;9963887;28;20442;-50
2023/07/18 02:56:34;;;;;;;5.10;3.65;;;;;;;;;;9985298;28;20424;-48
2023/07/18 03:01:26;;;;;;;7.25;4.35;;;;;;;;;;9956563;28;20034;-47
2023/07/18 03:06:18;;;;;;;4.55;3.15;;;;;;;;;;9969208;28;20042;-48
2023/07/18 03:11:10;;;;;;;4.53;4.05;;;;;;;;;;9952998;28;20062;-50
2023/07/18 03:16:04;;;;;;;5.53;3.80;;;;;;;;;;9987537;28;20046;-50
2023/07/18 03:20:56;;;;;;;7.45;3.30;;;;;;;;;;9968664;28;20468;-51
2023/07/18 03:25:48;;;;;;;3.08;2.50;;;;;;;;;;9985800;28;20054;-50
2023/07/18 03:30:40;;;;;;;5.93;3.05;;;;;;;;;;9967925;28;20046;-47
2023/07/18 03:35:32;;;;;;;5.25;3.67;;;;;;;;;;9967753;28;20476;-47
2023/07/18 03:40:24;;;;;;;4.47;3.47;;;;;;;;;;9984202;28;20050;-50
2023/07/18 03:45:18;;;;;;;4.63;3.47;;;;;;;;;;9969655;28;20051;-47
2023/07/18 03:50:11;;;;;;;5.18;3.88;;;;;;;;;;9980994;28;20424;-50
2023/07/18 03:55:04;;;;;;;3.92;3.10;;;;;;;;;;9983077;28;20050;-48
2023/07/18 03:59:56;;;;;;;6.80;3.75;;;;;;;;;;9984508;28;20146;-49
2023/07/18 04:04:48;;;;;;;9.63;3.97;;;;;;;;;;9973882;28;20074;-49
2023/07/18 04:09:40;;;;;;;3.78;2.95;;;;;;;;;;9957433;28;20050;-49
2023/07/18 04:14:32;;;;;;;7.57;3.42;;;;;;;;;;9978693;28;20050;-50
2023/07/18 04:19:24;;;;;;;8.07;3.08;;;;;;;;;;9965214;28;20045;-48
2023/07/18 04:24:16;;;;;;;3.90;2.65;;;;;;;;;;9983471;28;20093;-50
2023/07/18 04:29:08;;;;;;;4.20;3.47;;;;;;;;;;9985489;28;20458;-49
2023/07/18 04:33:59;;;;;;;4.28;3.72;;;;;;;;;;9985019;28;20054;-52
2023/07/18 04:38:51;;;;;;;4.80;3.60;;;;;;;;;;9984733;28;20057;-49
2023/07/18 04:43:43;;;;;;;5.57;4.38;;;;;;;;;;9976280;28;20379;-49
2023/07/18 04:48:35;;;;;;;10.10;4.97;;;;;;;;;;9966636;28;20346;-48
2023/07/18 04:53:28;;;;;;;4.53;3.28;;;;;;;;;;9983261;28;20069;-48
2023/07/18 04:58:20;;;;;;;4.68;4.25;;;;;;;;;;9970334;28;20473;-52
2023/07/18 05:03:12;;;;;;;6.45;3.90;;;;;;;;;;9980206;28;20400;-49
2023/07/18 05:08:04;;;;;;;3.65;3.30;;;;;;;;;;9982311;28;20541;-49
2023/07/18 05:12:56;;;;;;;5.07;3.30;;;;;;;;;;9982450;28;20098;-50
2023/07/18 05:17:48;;;;;;;4.53;4.00;;;;;;;;;;9979891;28;20480;-47
2023/07/18 05:22:42;;;;;;;4.10;3.70;;;;;;;;;;9979611;28;20093;-49
2023/07/18 05:27:35;;;;;;;4.47;3.47;;;;;;;;;;9983394;28;20038;-50
2023/07/18 05:32:26;;;;;;;3.38;3.00;;;;;;;;;;9992772;28;20046;-50
2023/07/18 05:37:21;;;;;;;5.45;4.13;;;;;;;;;;9983303;28;20073;-50
2023/07/18 05:42:12;;;;;;;4.95;3.08;;;;;;;;;;9986637;28;20045;-51
2023/07/18 05:47:05;;;;;;;4.43;3.25;;;;;;;;;;9987906;28;20480;-50
2023/07/18 05:51:56;;;;;;;5.60;3.55;;;;;;;;;;9983234;28;20391;-50
2023/07/18 05:56:48;;;;;;;4.47;3.33;;;;;;;;;;9984015;28;20121;-49
2023/07/18 06:01:40;;;;;;;4.65;3.55;;;;;;;;;;9982292;28;20041;-50
2023/07/18 06:06:34;;;;;;;6.35;3.55;;;;;;;;;;9982871;28;20066;-50
2023/07/18 06:11:26;;;;;;;4.30;3.90;;;;;;;;;;9981778;28;20118;-52
2023/07/18 06:16:18;;;;;;;5.63;4.35;;;;;;;;;;9966447;28;20380;-50
2023/07/18 06:21:10;;;;;;;4.97;3.55;;;;;;;;;;10007162;28;20053;-50
2023/07/18 06:26:01;;;;;;;3.67;3.38;;;;;;;;;;9976595;28;20039;-50
2023/07/18 06:30:55;;;;;;;5.82;3.30;;;;;;;;;;9978513;28;20043;-45
2023/07/18 06:35:54;;;;;;;4.18;3.42;;;;;;;;;;9965029;28;20042;-50
2023/07/18 06:40:46;;;;;;;4.53;3.72;;;;;;;;;;9965400;28;20075;-49
2023/07/18 06:45:38;;;;;;;4.38;3.72;;;;;;;;;;9968097;28;20037;-53
2023/07/18 06:50:31;;;;;;;6.38;4.70;;;;;;;;;;9982319;28;20053;-50
2023/07/18 06:55:22;;;;;;;4.25;3.35;;;;;;;;;;9984311;28;20137;-52
2023/07/18 07:00:15;;;;;;;4.80;3.40;;;;;;;;;;9986730;28;20047;-51
2023/07/18 07:05:08;;;;;;;5.28;4.53;;;;;;;;;;9985174;28;20077;-50
2023/07/18 07:10:00;;;;;;;9.85;3.53;;;;;;;;;;9984819;28;20615;-48
2023/07/18 07:14:52;;;;;;;3.50;3.20;;;;;;;;;;9985465;28;20061;-49
2023/07/18 07:19:44;;;;;;;5.85;3.70;;;;;;;;;;9984981;28;20364;-49
2023/07/18 07:24:36;;;;;;;9.63;5.00;;;;;;;;;;9968348;28;20046;-53
2023/07/18 07:29:28;;;;;;;4.28;3.85;;;;;;;;;;9986329;28;20054;-50
2023/07/18 07:34:20;;;;;;;4.40;4.00;;;;;;;;;;9985403;28;20058;-49
2023/07/18 07:39:13;;;;;;;5.97;4.10;;;;;;;;;;9986289;28;20051;-49
2023/07/18 07:44:06;;;;;;;5.28;4.10;;;;;;;;;;9985866;28;20073;-49
2023/07/18 07:48:58;;;;;;;4.22;3.55;;;;;;;;;;9984395;28;20046;-49
2023/07/18 07:53:50;;;;;;;4.40;4.00;;;;;;;;;;9985220;28;20562;-51
2023/07/18 07:58:42;;;;;;;4.78;4.38;;;;;;;;;;9948179;28;20448;-49
2023/07/18 08:03:42;;;;;;;4.78;3.70;;;;;;;;;;9980158;28;20146;-48
2023/07/18 08:08:34;;;;;;;5.18;3.45;;;;;;;;;;9972687;28;20436;-49
2023/07/18 08:13:27;;;;;;;5.10;4.13;;;;;;;;;;9958774;28;20046;-50
2023/07/18 08:18:19;;;;;;;7.22;3.80;;;;;;;;;;9986052;28;20090;-49
2023/07/18 08:23:11;;;;;;;4.57;4.10;;;;;;;;;;9983820;28;20077;-49
2023/07/18 08:28:03;;;;;;;4.72;4.28;;;;;;;;;;9980962;28;20057;-50
2023/07/18 08:32:55;;;;;;;4.93;4.13;;;;;;;;;;9982035;28;20502;-49
2023/07/18 08:37:47;;;;;;;5.53;4.05;;;;;;;;;;9949584;28;20154;-50
2023/07/18 08:42:39;;;;;;;4.15;3.75;;;;;;;;;;9961994;28;20046;-49
2023/07/18 08:47:31;;;;;;;7.35;4.15;;;;;;;;;;9962426;28;20057;-49
2023/07/18 08:52:24;;;;;;;6.50;3.70;;;;;;;;;;9965511;28;20360;-49
2023/07/18 08:57:16;;;;;;;4.50;3.75;;;;;;;;;;9981918;28;20054;-49
2023/07/18 09:02:08;;;;;;;4.57;3.92;;;;;;;;;;9988033;28;20058;-50
2023/07/18 09:07:01;;;;;;;6.22;4.03;;;;;;;;;;9991633;28;20050;-48
2023/07/18 09:12:11;;;;;;;5.80;3.90;;;;;;;;;;9978858;28;20059;-51
2023/07/18 09:17:04;;;;;;;6.63;4.45;;;;;;;;;;9988172;28;20150;-52
2023/07/18 09:21:59;;;;;;;4.32;3.65;;;;;;;;;;9990427;28;20105;-49
2023/07/18 09:26:52;;;;;;;4.38;4.00;;;;;;;;;;9991528;28;20050;-48
2023/07/18 09:31:44;;;;;;;4.50;4.10;;;;;;;;;;9973401;28;20049;-49
2023/07/18 09:36:36;;;;;;;4.85;3.95;;;;;;;;;;9972893;28;20050;-51
2023/07/18 09:41:30;;;;;;;5.25;4.75;;;;;;;;;;9991821;28;20050;-47
2023/07/18 09:46:22;;;;;;;4.70;3.70;;;;;;;;;;9963289;28;20043;-50
2023/07/18 09:51:15;;;;;;;6.03;4.40;;;;;;;;;;9965149;28;20093;-50
2023/07/18 09:56:09;;;;;;;4.60;4.20;;;;;;;;;;9984337;28;20054;-51
2023/07/18 10:01:03;;;;;;;7.90;3.85;;;;;;;;;;9972717;28;20138;-52
2023/07/18 10:05:55;;;;;;;5.53;4.05;;;;;;;;;;9968096;28;20050;-50
2023/07/18 10:11:03;;;;;;;6.15;4.22;;;;;;;;;;9980612;28;20065;-51
2023/07/18 10:16:13;;;;;;;;;;;;;;;;;;9966810;28;20522;-52
2023/07/18 10:21:06;;;;;;;4.05;3.65;;;;;;;;;;9976451;28;19922;-51
2023/07/18 10:25:57;;;;;;;32.08;10.88;;;;;;;;;;9975543;28;20436;-50
2023/07/18 10:30:49;;;;;;;10.65;5.63;;;;;;;;;;9981562;28;20096;-51
2023/07/18 10:35:41;;;;;;;12.40;7.40;;;;;;;;;;9981519;28;20070;-49
2023/07/18 10:40:43;;;;;;;18.92;7.68;;;;;;;;;;9974624;28;20089;-48
2023/07/18 10:45:38;;;;;;;23.25;8.55;;;;;;;;;;9984962;28;20057;-50
2023/07/18 10:50:30;;;;;;;18.00;9.60;;;;;;;;;;9983674;28;20711;-50
2023/07/18 10:55:22;;;;;;;10.63;6.53;;;;;;;;;;9980742;28;20373;-47
2023/07/18 11:00:14;;;;;;;14.45;6.82;;;;;;;;;;9976363;28;20051;-48
2023/07/18 11:05:11;;;;;;;16.83;6.53;;;;;;;;;;9987111;28;20388;-49
2023/07/18 11:10:03;;;;;;;17.65;8.05;;;;;;;;;;9984193;28;20047;-48
2023/07/18 11:14:56;;;;;;;13.32;7.00;;;;;;;;;;9979657;28;20087;-50
2023/07/18 11:19:56;;;;;;;15.68;7.15;;;;;;;;;;9980384;28;20054;-50
2023/07/18 11:24:48;;;;;;;12.25;7.95;;;;;;;;;;9982266;28;20392;-51
2023/07/18 11:29:41;;;;;;;15.77;7.28;;;;;;;;;;9971037;28;20138;-47
2023/07/18 11:34:33;;;;;;;11.73;6.95;;;;;;;;;;9973682;28;20046;-47
2023/07/18 11:39:30;;;;;;;13.48;7.57;;;;;;;;;;9957204;28;20046;-49
2023/07/18 11:44:25;;;;;;;12.85;7.10;;;;;;;;;;9981661;28;20084;-47
2023/07/18 11:49:17;;;;;;;15.73;8.23;;;;;;;;;;9984294;28;20069;-49
2023/07/18 11:54:09;;;;;;;16.85;6.97;;;;;;;;;;9981807;28;20142;-49
2023/07/18 11:59:01;;;;;;;11.35;5.93;;;;;;;;;;9962927;28;20173;-50
2023/07/18 12:03:54;;;;;;;12.20;7.20;;;;;;;;;;9957528;28;20098;-49
2023/07/18 12:08:48;;;;;;;9.73;7.07;;;;;;;;;;9951862;28;20096;-48
2023/07/18 12:13:40;;;;;;;10.18;6.90;;;;;;;;;;9974186;28;20102;-49
2023/07/18 12:18:32;;;;;;;13.25;6.78;;;;;;;;;;9954572;28;20477;-49
2023/07/18 12:23:25;;;;;;;15.55;6.97;;;;;;;;;;9948173;28;20441;-49
2023/07/18 12:28:17;;;;;;;12.30;6.45;;;;;;;;;;9971154;28;20089;-48
2023/07/18 12:33:08;;;;;;;13.52;7.57;;;;;;;;;;9957277;28;20053;-49
2023/07/18 12:38:01;;;;;;;17.45;7.70;;;;;;;;;;9970801;28;20073;-49
2023/07/18 12:42:53;;;;;;;9.98;6.90;;;;;;;;;;9985321;28;20047;-49
2023/07/18 12:47:45;;;;;;;13.90;7.93;;;;;;;;;;9992004;28;20074;-50
2023/07/18 12:52:40;;;;;;;12.55;6.90;;;;;;;;;;9988744;28;20133;-51
2023/07/18 12:57:32;;;;;;;11.00;7.85;;;;;;;;;;9978833;28;20068;-49
2023/07/18 13:02:24;;;;;;;15.05;9.48;;;;;;;;;;9988643;28;20070;-49
2023/07/18 13:07:16;;;;;;;13.13;7.63;;;;;;;;;;9983919;28;20050;-46
2023/07/18 13:12:08;;;;;;;9.20;7.03;;;;;;;;;;9984712;28;20042;-49
2023/07/18 13:17:00;;;;;;;8.50;7.38;;;;;;;;;;9987744;28;20073;-48
2023/07/18 13:21:53;;;;;;;11.30;7.82;;;;;;;;;;9989674;28;20058;-45
2023/07/18 13:26:45;;;;;;;12.30;6.97;;;;;;;;;;9990107;28;20046;-49
2023/07/18 13:31:37;;;;;;;12.70;8.18;;;;;;;;;;9984545;28;20070;-47
2023/07/18 13:36:32;;;;;;;9.10;7.32;;;;;;;;;;9988981;28;20435;-42
2023/07/18 13:41:24;;;;;;;11.82;7.35;;;;;;;;;;9989154;28;20039;-43
2023/07/18 13:46:16;;;;;;;10.82;7.35;;;;;;;;;;9975338;28;20428;-46
2023/07/18 13:51:09;;;;;;;12.88;7.43;;;;;;;;;;9983388;28;20077;-45
2023/07/18 13:56:01;;;;;;;9.05;6.28;;;;;;;;;;9970731;28;20205;-44
2023/07/18 14:00:53;;;;;;;10.20;6.72;;;;;;;;;;9966252;28;20039;-44
2023/07/18 14:05:45;;;;;;;12.13;6.82;;;;;;;;;;9962077;28;20054;-45
2023/07/18 14:10:37;;;;;;;10.73;7.40;;;;;;;;;;9986291;28;20141;-44
2023/07/18 14:15:29;;;;;;;9.60;7.28;;;;;;;;;;9988380;28;20453;-46
2023/07/18 14:20:22;;;;;;;7.20;6.05;;;;;;;;;;9989369;28;20080;-44
2023/07/18 14:25:14;;;;;;;11.20;8.07;;;;;;;;;;9974579;28;20049;-40
2023/07/18 14:30:06;;;;;;;10.30;6.55;;;;;;;;;;9985332;28;20376;-41
2023/07/18 14:34:59;;;;;;;10.48;6.95;;;;;;;;;;9988334;28;20050;-42
2023/07/18 14:39:59;;;;;;;9.60;6.63;;;;;;;;;;9974186;28;20046;-44
2023/07/18 14:44:51;;;;;;;7.20;6.32;;;;;;;;;;9963393;28;20057;-45
2023/07/18 14:49:43;;;;;;;7.50;6.47;;;;;;;;;;9986784;28;20042;-45
2023/07/18 14:54:35;;;;;;;9.27;6.00;;;;;;;;;;9985399;28;20053;-46
2023/07/18 14:59:27;;;;;;;10.20;6.35;;;;;;;;;;9979103;28;20050;-45
2023/07/18 15:04:19;;;;;;;8.50;6.07;;;;;;;;;;9970229;28;20089;-46
2023/07/18 15:09:11;;;;;;;9.75;6.18;;;;;;;;;;9977555;28;20061;-47
2023/07/18 15:14:03;;;;;;;12.05;6.97;;;;;;;;;;9963382;28;20054;-45
2023/07/18 15:18:55;;;;;;;8.90;5.95;;;;;;;;;;9987139;28;20046;-46
2023/07/18 15:23:47;;;;;;;8.30;6.80;;;;;;;;;;9986527;28;20507;-45
2023/07/18 15:28:40;;;;;;;7.10;6.35;;;;;;;;;;9985719;28;20125;-46
2023/07/18 15:33:33;;;;;;;7.82;6.95;;;;;;;;;;9986342;28;20447;-47
2023/07/18 15:38:25;;;;;;;8.77;7.43;;;;;;;;;;9985685;28;20046;-46
2023/07/18 15:43:17;;;;;;;8.52;6.30;;;;;;;;;;9970437;28;20074;-44
2023/07/18 15:48:09;;;;;;;11.48;6.15;;;;;;;;;;9979279;28;20074;-45
2023/07/18 15:53:01;;;;;;;8.15;6.57;;;;;;;;;;9982634;28;20070;-45
2023/07/18 15:57:53;;;;;;;8.98;6.82;;;;;;;;;;9980002;28;20049;-46
2023/07/18 16:02:45;;;;;;;8.93;6.28;;;;;;;;;;9969707;28;20560;-46
2023/07/18 16:07:37;;;;;;;7.53;6.30;;;;;;;;;;9983779;28;20038;-46
2023/07/18 16:12:29;;;;;;;8.20;6.38;;;;;;;;;;9982285;28;20495;-44
2023/07/18 16:17:21;;;;;;;10.57;6.55;;;;;;;;;;9971892;28;20054;-46
2023/07/18 16:22:15;;;;;;;7.78;5.57;;;;;;;;;;9961324;28;20047;-41
2023/07/18 16:27:07;;;;;;;9.85;7.03;;;;;;;;;;9980043;28;20481;-45
2023/07/18 16:31:59;;;;;;;6.00;5.40;;;;;;;;;;9970788;28;20082;-46
2023/07/18 16:36:51;;;;;;;7.55;6.85;;;;;;;;;;9971591;28;20512;-45
2023/07/18 16:41:44;;;;;;;7.68;6.32;;;;;;;;;;9960848;28;20042;-46
2023/07/18 16:46:36;;;;;;;11.95;7.57;;;;;;;;;;9973999;28;20042;-44
2023/07/18 16:51:28;;;;;;;7.47;6.50;;;;;;;;;;9964533;28;20100;-45
2023/07/18 16:56:20;;;;;;;7.15;6.55;;;;;;;;;;9971740;28;20093;-45
2023/07/18 17:01:13;;;;;;;8.48;7.63;;;;;;;;;;9960873;28;20650;-45
2023/07/18 17:06:06;;;;;;;7.75;6.28;;;;;;;;;;9964510;28;20045;-44
2023/07/18 17:10:58;;;;;;;8.43;6.15;;;;;;;;;;9966029;28;20098;-46
2023/07/18 17:15:50;;;;;;;11.02;6.40;;;;;;;;;;9976126;28;20043;-45
2023/07/18 17:20:43;;;;;;;6.40;5.47;;;;;;;;;;9969035;28;20058;-45
2023/07/18 17:25:35;;;;;;;6.10;5.50;;;;;;;;;;9991792;28;20093;-43
2023/07/18 17:30:27;;;;;;;8.63;7.47;;;;;;;;;;9963405;28;20534;-45
2023/07/18 17:35:20;;;;;;;9.80;6.88;;;;;;;;;;9974558;28;20084;-45
2023/07/18 17:40:13;;;;;;;8.55;6.30;;;;;;;;;;9985930;28;20096;-47
2023/07/18 17:45:06;;;;;;;6.75;6.03;;;;;;;;;;9968523;28;20053;-43
2023/07/18 17:49:58;;;;;;;9.35;6.30;;;;;;;;;;9969796;28;20070;-45
2023/07/18 17:54:49;;;;;;;6.70;5.85;;;;;;;;;;9968231;28;20137;-46
2023/07/18 17:59:41;;;;;;;11.30;6.18;;;;;;;;;;9964336;28;20039;-45
2023/07/18 18:04:36;;;;;;;6.95;6.25;;;;;;;;;;9975140;28;20672;-42
2023/07/18 18:09:28;;;;;;;8.10;6.45;;;;;;;;;;9970091;28;20089;-43
2023/07/18 18:14:20;;;;;;;8.82;6.65;;;;;;;;;;9974603;28;20050;-43
2023/07/18 18:19:12;;;;;;;7.90;6.85;;;;;;;;;;9985515;28;20039;-46
2023/07/18 18:24:04;;;;;;;11.40;6.72;;;;;;;;;;9974601;28;20125;-44
2023/07/18 18:28:56;;;;;;;17.50;8.60;;;;;;;;;;9991278;28;20109;-46
2023/07/18 18:33:48;;;;;;;11.27;7.55;;;;;;;;;;9985481;28;20042;-47
2023/07/18 18:38:41;;;;;;;21.60;10.48;;;;;;;;;;9986640;28;20046;-46
2023/07/18 18:43:33;;;;;;;18.80;10.45;;;;;;;;;;9973326;28;20408;-42
2023/07/18 18:48:25;;;;;;;18.92;10.43;;;;;;;;;;9991377;28;20058;-46
2023/07/18 18:53:17;;;;;;;19.13;9.05;;;;;;;;;;9985577;28;20039;-45
2023/07/18 18:58:09;;;;;;;17.63;8.80;;;;;;;;;;9981128;28;20043;-45
2023/07/18 19:03:04;;;;;;;16.95;10.55;;;;;;;;;;9979345;28;20077;-45
2023/07/18 19:07:56;;;;;;;29.92;10.82;;;;;;;;;;9985774;28;20074;-42
2023/07/18 19:12:48;;;;;;;20.90;9.77;;;;;;;;;;9986595;28;20077;-42
2023/07/18 19:17:40;;;;;;;14.40;9.68;;;;;;;;;;9985916;28;20093;-46
2023/07/18 19:22:33;;;;;;;19.00;9.15;;;;;;;;;;9985672;28;20053;-46
2023/07/18 19:27:25;;;;;;;14.15;9.73;;;;;;;;;;9986355;28;20039;-45
2023/07/18 19:32:17;;;;;;;18.67;9.45;;;;;;;;;;9975450;28;20047;-46
2023/07/18 19:37:09;;;;;;;13.07;8.73;;;;;;;;;;9969876;28;20039;-45
2023/07/18 19:42:02;;;;;;;25.65;10.27;;;;;;;;;;9964870;28;20667;-46
2023/07/18 19:46:56;;;;;;;13.40;10.20;;;;;;;;;;9976516;28;20057;-46
2023/07/18 19:51:48;;;;;;;17.65;9.10;;;;;;;;;;9974376;28;20043;-45
2023/07/18 19:56:40;;;;;;;12.13;7.95;;;;;;;;;;9977374;28;20433;-44
2023/07/18 20:01:32;;;;;;;17.33;9.70;;;;;;;;;;9969626;28;20046;-45
2023/07/18 20:06:25;;;;;;;15.48;9.85;;;;;;;;;;9973467;28;20047;-43
2023/07/18 20:11:17;;;;;;;13.82;8.65;;;;;;;;;;9979883;28;20503;-46
2023/07/18 20:16:09;;;;;;;17.05;8.32;;;;;;;;;;9974169;28;20137;-44
2023/07/18 20:21:02;;;;;;;10.93;7.72;;;;;;;;;;9971016;28;20424;-43
2023/07/18 20:25:55;;;;;;;16.15;9.00;;;;;;;;;;9968373;28;20134;-46
2023/07/18 20:30:48;;;;;;;12.00;8.13;;;;;;;;;;9969427;28;20127;-44
2023/07/18 20:35:40;;;;;;;16.33;9.82;;;;;;;;;;9970093;28;20046;-43
2023/07/18 20:40:32;;;;;;;14.40;8.02;;;;;;;;;;9980494;28;20064;-46
2023/07/18 20:45:27;;;;;;;14.13;8.30;;;;;;;;;;9982988;28;20077;-46
2023/07/18 20:50:19;;;;;;;19.55;9.48;;;;;;;;;;9982766;28;20558;-53
2023/07/18 20:55:11;;;;;;;13.02;7.70;;;;;;;;;;9988879;28;20058;-47
2023/07/18 21:00:07;;;;;;;13.15;8.07;;;;;;;;;;9992940;28;20081;-45
2023/07/18 21:04:59;;;;;;;8.95;7.97;;;;;;;;;;10030734;28;20383;-46
2023/07/18 21:09:51;;;;;;;14.90;8.15;;;;;;;;;;10030336;28;20080;-48
2023/07/18 21:14:43;;;;;;;9.43;7.43;;;;;;;;;;10029581;28;20053;-48
2023/07/18 21:19:35;;;;;;;15.25;8.10;;;;;;;;;;10016726;28;20050;-46
2023/07/18 21:24:27;;;;;;;10.63;7.18;;;;;;;;;;10031005;28;20050;-48
2023/07/18 21:29:20;;;;;;;9.88;7.32;;;;;;;;;;10030592;28;20161;-47
2023/07/18 21:34:12;;;;;;;9.68;8.13;;;;;;;;;;10032188;28;20042;-44
2023/07/18 21:39:04;;;;;;;9.70;7.50;;;;;;;;;;10032509;28;20061;-46
2023/07/18 21:43:59;;;;;;;11.30;7.22;;;;;;;;;;10025755;28;20042;-45
2023/07/18 21:48:53;;;;;;;11.73;7.32;;;;;;;;;;9992422;28;20042;-48
2023/07/18 21:53:44;;;;;;;9.88;7.43;;;;;;;;;;9992121;28;20078;-47
2023/07/18 21:58:36;;;;;;;12.65;8.27;;;;;;;;;;9982697;28;20105;-46
2023/07/18 22:03:28;;;;;;;12.45;8.40;;;;;;;;;;9996644;28;20089;-49
2023/07/18 22:08:20;;;;;;;10.20;7.75;;;;;;;;;;9988496;28;20596;-43
2023/07/18 22:13:14;;;;;;;10.48;7.53;;;;;;;;;;9996281;28;20056;-48
2023/07/18 22:18:05;;;;;;;14.45;8.18;;;;;;;;;;9985261;28;20050;-48
2023/07/18 22:23:17;;;;;;;10.25;8.02;;;;;;;;;;9979897;28;20188;-45
2023/07/18 22:28:09;;;;;;;10.93;8.20;;;;;;;;;;9995171;28;20536;-47
2023/07/18 22:33:02;;;;;;;10.27;8.18;;;;;;;;;;9991112;28;20495;-47
2023/07/18 22:37:54;;;;;;;16.25;8.43;;;;;;;;;;9989299;28;20058;-47
2023/07/18 22:42:46;;;;;;;18.60;9.30;;;;;;;;;;9979213;28;20469;-44
2023/07/18 22:47:39;;;;;;;13.77;9.32;;;;;;;;;;9983990;28;20475;-47
2023/07/18 22:52:31;;;;;;;15.20;9.68;;;;;;;;;;9965175;28;20532;-47
2023/07/18 22:57:23;;;;;;;14.48;9.10;;;;;;;;;;9980967;28;20050;-50
2023/07/18 23:02:15;;;;;;;15.25;8.43;;;;;;;;;;9984972;28;20648;-46
2023/07/18 23:07:08;;;;;;;14.27;8.65;;;;;;;;;;9982884;28;20088;-48
2023/07/18 23:12:02;;;;;;;13.82;8.73;;;;;;;;;;9972328;28;20047;-51
2023/07/18 23:16:56;;;;;;;16.70;9.05;;;;;;;;;;9987111;28;20039;-52
2023/07/18 23:21:48;;;;;;;12.30;8.25;;;;;;;;;;9983872;28;20043;-49
2023/07/18 23:26:40;;;;;;;19.08;8.88;;;;;;;;;;9986683;28;20109;-45
2023/07/18 23:31:32;;;;;;;13.93;9.23;;;;;;;;;;9987077;28;20081;-49
2023/07/18 23:36:24;;;;;;;14.55;7.93;;;;;;;;;;9975391;28;20108;-50
2023/07/18 23:41:16;;;;;;;13.18;9.10;;;;;;;;;;9992427;28;20528;-47
2023/07/18 23:46:08;;;;;;;9.98;7.68;;;;;;;;;;9986879;28;20379;-50
2023/07/18 23:51:00;;;;;;;12.25;8.10;;;;;;;;;;9984197;28;20156;-47
2023/07/18 23:55:52;;;;;;;11.18;8.13;;;;;;;;;;9947200;28;20074;-48
